Airfield :







YOU CAN JOIN US ON...

 
LOGIN :

Register | Disclaimer

   EN    FR    IT 

 









Legend :    VFR   Marginal VFR   IFR   Intensive IFR   Very Intensive IFR
Visi :
Ceiling :
>= 8 km
>= 3000ft
5 to 8 km
1000 to 3000 ft
1500m to 5 km
500 to 1000 ft
800 to 1500m
200 to 500 ft
< 800m
< 200 ft
Symbols :   Thunderstorms  Fog  Heavy snow  Heavy precipitations  Wind > 20 kt







- Airport Elevation : 545 ft


KLCI - Laconia Municipal

CURRENT METAR :
  • 220828Z AUTO 00000KT 1/4SM FG OVC003 09/09 A3011 RMK AO2 PWINO $

EXPIRED METARs :
  • 220756Z AUTO 00000KT M1/4SM FG OVC001 09/09 A3011 RMK AO2 SLP214 T00890089 PWINO $
  • 220730Z AUTO 00000KT 10SM OVC001 08/08 A3011 RMK AO2 PWINO $
  • 220718Z AUTO 00000KT 2SM BR OVC001 08/08 A3010 RMK AO2 PWINO $
  • 220714Z AUTO 00000KT 3/4SM BR OVC001 09/09 A3010 RMK AO2 PWINO $
  • 220656Z AUTO 00000KT 1/4SM FG OVC001 10/10 A3011 RMK AO2 SLP212 T01000100 PWINO $
  • 220617Z AUTO 00000KT 1/4SM FG OVC001 11/10 A3010 RMK AO2 PWINO $
  • 220602Z AUTO 00000KT 1 1/2SM BR OVC001 11/11 A3011 RMK AO2 VIS 3/4V5 PWINO $

TAF N/A
KZBW FIR / North America



MET'MAP, your aeronautical weather chart ! - Copyright ORBIFLY December 2007 - Disclaimer

ORBIFLY MET'MAP TEAM :

Programming & Development : Alexandra Zaïnal
Concept & Development : Baudouin d'Aumeries
Co-Development & Prog : Marc-Olivier Méhu
Technical & hardware support : Manuel Goepfert

Contact : metmap@orbifly.com




SOURCES & CREDITS :

   NOAA